createdAt,value
2017-10-17T00:01:04.692Z,99.90
2017-10-17T00:03:33.024Z,99.90
2017-10-17T00:06:01.333Z,99.90
2017-10-17T00:08:29.661Z,99.90
2017-10-17T00:10:58.732Z,99.90
2017-10-17T00:13:27.069Z,99.90
2017-10-17T00:15:55.405Z,99.90
2017-10-17T00:18:23.751Z,99.90
2017-10-17T00:20:52.061Z,99.90
2017-10-17T00:23:20.437Z,99.90
2017-10-17T00:25:48.743Z,99.90
2017-10-17T00:28:17.840Z,99.90
2017-10-17T00:30:48.364Z,99.90
2017-10-17T00:33:18.304Z,99.90
2017-10-17T00:35:53.021Z,99.90
2017-10-17T00:38:21.360Z,99.90
2017-10-17T00:40:49.672Z,99.90
2017-10-17T00:43:18.772Z,99.90
2017-10-17T00:45:47.076Z,99.90
2017-10-17T00:48:19.278Z,99.90
2017-10-17T00:50:49.295Z,99.90
2017-10-17T00:53:20.584Z,99.90
2017-10-17T00:55:48.907Z,99.90
2017-10-17T00:58:19.156Z,99.90
2017-10-17T01:00:47.476Z,99.90
2017-10-17T01:03:15.802Z,99.90
2017-10-17T01:05:44.115Z,99.90
2017-10-17T01:08:13.212Z,99.90
2017-10-17T01:10:42.290Z,99.90
2017-10-17T01:13:10.621Z,99.90
2017-10-17T01:15:38.936Z,99.90
2017-10-17T01:18:07.298Z,99.90
2017-10-17T01:23:38.613Z,99.90
2017-10-17T01:26:18.557Z,99.90
2017-10-17T01:28:47.672Z,99.90
2017-10-17T01:31:15.975Z,99.90
2017-10-17T01:33:48.963Z,99.90
2017-10-17T01:36:17.276Z,99.90
2017-10-17T01:38:53.220Z,99.90
2017-10-17T01:41:21.549Z,99.90
2017-10-17T01:46:49.224Z,99.90
2017-10-17T01:49:28.908Z,99.90
2017-10-17T01:52:03.913Z,99.90
2017-10-17T01:54:33.957Z,99.90
2017-10-17T01:57:02.375Z,99.90
2017-10-17T01:59:35.203Z,99.90
2017-10-17T02:02:03.515Z,99.90
2017-10-17T02:04:31.832Z,99.90
2017-10-17T02:07:00.963Z,99.90
2017-10-17T02:09:30.056Z,99.90
2017-10-17T02:11:58.863Z,99.90
2017-10-17T02:14:27.195Z,99.90
2017-10-17T02:16:55.633Z,99.90
2017-10-17T02:19:23.935Z,99.90
2017-10-17T02:21:55.854Z,99.90
2017-10-17T02:24:26.078Z,99.90
2017-10-17T02:26:54.456Z,99.90
2017-10-17T02:29:22.772Z,99.90
2017-10-17T02:31:51.099Z,99.90
2017-10-17T02:37:16.807Z,99.90
2017-10-17T02:39:45.124Z,99.90
2017-10-17T02:42:13.456Z,99.90
2017-10-17T02:44:41.785Z,99.90
2017-10-17T02:47:11.038Z,99.90
2017-10-17T02:49:42.161Z,99.90
2017-10-17T02:52:14.475Z,99.90
2017-10-17T02:54:43.644Z,99.90
2017-10-17T02:57:13.998Z,99.90
2017-10-17T02:59:46.808Z,99.90
2017-10-17T03:02:18.836Z,99.90
2017-10-17T03:04:50.539Z,99.90
2017-10-17T03:07:18.863Z,99.90
2017-10-17T03:09:47.177Z,99.90
2017-10-17T03:12:15.508Z,99.90
2017-10-17T03:15:09.461Z,99.90
2017-10-17T03:17:49.528Z,99.90
2017-10-17T03:20:17.842Z,99.90
2017-10-17T03:22:46.184Z,99.90
2017-10-17T03:25:17.208Z,99.90
2017-10-17T03:27:48.896Z,99.90
2017-10-17T03:30:17.205Z,99.90
2017-10-17T03:32:45.288Z,99.90
2017-10-17T03:35:16.159Z,99.90
2017-10-17T03:40:49.937Z,99.90
2017-10-17T03:43:19.419Z,99.90
2017-10-17T03:45:47.477Z,99.90
2017-10-17T03:48:16.325Z,99.90
2017-10-17T03:50:44.388Z,99.90
2017-10-17T03:53:23.049Z,99.90
2017-10-17T03:55:51.104Z,99.90
2017-10-17T03:58:28.717Z,99.90
2017-10-17T04:00:56.768Z,99.90
2017-10-17T04:03:26.612Z,99.90
2017-10-17T04:05:59.049Z,99.90
2017-10-17T04:08:33.036Z,99.90
2017-10-17T04:14:17.209Z,99.90
2017-10-17T04:16:46.821Z,99.90
2017-10-17T04:19:36.705Z,99.90
2017-10-17T04:22:11.619Z,99.90
2017-10-17T04:24:42.504Z,99.90
2017-10-17T04:27:25.364Z,99.90
2017-10-17T04:33:38.500Z,99.90
2017-10-17T04:36:13.173Z,99.90
2017-10-17T04:38:41.235Z,99.90
2017-10-17T04:41:14.341Z,99.90
2017-10-17T04:46:46.664Z,99.90
2017-10-17T04:49:21.403Z,99.90
2017-10-17T04:51:53.874Z,99.90
2017-10-17T04:54:28.445Z,99.90
2017-10-17T04:57:01.473Z,99.90
2017-10-17T04:59:31.806Z,99.90
2017-10-17T05:05:03.736Z,99.90
2017-10-17T05:07:36.539Z,99.90
2017-10-17T05:10:06.246Z,99.90
2017-10-17T05:12:39.154Z,99.90
2017-10-17T05:15:07.890Z,99.90
2017-10-17T05:17:40.326Z,99.90
2017-10-17T05:20:23.967Z,99.90
2017-10-17T05:22:58.565Z,99.90
2017-10-17T05:25:28.348Z,99.90
2017-10-17T05:28:21.220Z,99.90
2017-10-17T05:34:00.737Z,99.90
2017-10-17T05:36:29.713Z,99.90
2017-10-17T05:38:57.796Z,99.90
2017-10-17T05:41:25.853Z,99.90
2017-10-17T05:44:00.512Z,99.90
2017-10-17T05:46:29.336Z,99.90
2017-10-17T05:51:56.886Z,99.90
2017-10-17T05:54:25.700Z,99.90
2017-10-17T05:56:53.768Z,99.90
2017-10-17T05:59:21.850Z,99.90
2017-10-17T06:01:49.933Z,99.90
2017-10-17T06:04:18.021Z,99.90
2017-10-17T06:06:46.071Z,99.90
2017-10-17T06:09:14.159Z,99.90
2017-10-17T06:11:42.224Z,99.90
2017-10-17T06:14:10.315Z,99.90
2017-10-17T06:16:38.633Z,99.90
2017-10-17T06:19:06.969Z,99.90
2017-10-17T06:21:36.040Z,99.90
2017-10-17T06:24:04.376Z,99.90
2017-10-17T06:26:32.672Z,99.90
2017-10-17T06:29:01.820Z,99.90
2017-10-17T06:31:30.150Z,99.90
2017-10-17T06:33:58.482Z,99.90
2017-10-17T06:36:26.789Z,99.90
2017-10-17T06:38:55.104Z,99.90
2017-10-17T06:41:23.424Z,99.90
2017-10-17T06:43:52.507Z,99.90
2017-10-17T06:46:20.825Z,99.90
2017-10-17T06:48:49.157Z,99.90
2017-10-17T06:51:17.457Z,99.90
2017-10-17T06:53:45.784Z,99.90
2017-10-17T06:56:14.097Z,99.90
2017-10-17T06:58:42.417Z,99.90
2017-10-17T07:01:10.725Z,99.90
2017-10-17T07:03:39.052Z,99.90
2017-10-17T07:06:08.118Z,99.90
2017-10-17T07:08:36.447Z,99.90
2017-10-17T07:11:04.757Z,99.90
2017-10-17T07:13:33.071Z,99.90
2017-10-17T07:16:02.141Z,99.90
2017-10-17T07:18:30.449Z,99.90
2017-10-17T07:20:59.527Z,99.90
2017-10-17T07:23:27.861Z,99.90
2017-10-17T07:25:56.193Z,99.90
2017-10-17T07:28:24.516Z,99.90
2017-10-17T07:30:52.828Z,99.90
2017-10-17T07:33:21.152Z,99.90
2017-10-17T07:35:49.468Z,99.90
2017-10-17T07:38:17.796Z,99.90
2017-10-17T07:40:46.861Z,99.90
2017-10-17T07:43:15.199Z,99.90
2017-10-17T07:45:43.521Z,99.90
2017-10-17T07:48:11.843Z,99.90
2017-10-17T07:50:40.157Z,99.90
2017-10-17T07:53:08.482Z,99.90
2017-10-17T07:55:37.566Z,99.90
2017-10-17T07:58:05.903Z,99.90
2017-10-17T08:00:34.216Z,99.90
2017-10-17T08:03:02.549Z,99.90
2017-10-17T08:05:30.848Z,99.90
2017-10-17T08:07:59.172Z,99.90
2017-10-17T08:10:28.255Z,99.90
2017-10-17T08:12:57.339Z,99.90
2017-10-17T08:15:25.628Z,99.90
2017-10-17T08:17:54.698Z,99.90
2017-10-17T08:20:23.020Z,99.90
2017-10-17T08:22:51.322Z,99.90
2017-10-17T08:25:20.134Z,99.90
2017-10-17T08:27:48.431Z,99.90
2017-10-17T08:30:16.760Z,99.90
2017-10-17T08:32:45.065Z,99.90
2017-10-17T08:35:13.398Z,99.90
2017-10-17T08:37:42.456Z,99.90
2017-10-17T08:40:10.780Z,99.90
2017-10-17T08:42:39.849Z,99.90
2017-10-17T08:45:08.171Z,99.90
2017-10-17T08:47:36.478Z,99.90
2017-10-17T08:50:04.804Z,99.90
2017-10-17T08:52:33.877Z,99.90
2017-10-17T08:55:02.194Z,99.90
2017-10-17T08:57:30.493Z,99.90
2017-10-17T08:59:59.202Z,99.90
2017-10-17T09:02:27.507Z,99.90
2017-10-17T09:04:55.823Z,99.90
2017-10-17T09:07:24.125Z,99.90
2017-10-17T09:12:52.285Z,99.90
2017-10-17T09:15:21.369Z,99.90
2017-10-17T09:17:50.449Z,99.90
2017-10-17T09:20:18.777Z,99.90
2017-10-17T09:22:47.089Z,99.90
2017-10-17T09:25:15.416Z,99.90
2017-10-17T09:27:44.925Z,99.90
2017-10-17T09:30:13.251Z,99.90
2017-10-17T09:32:41.557Z,99.90
2017-10-17T09:35:10.654Z,99.90
2017-10-17T09:37:39.735Z,99.90
2017-10-17T09:40:08.073Z,99.90
2017-10-17T09:42:36.383Z,99.90
2017-10-17T09:45:05.513Z,99.90
2017-10-17T09:47:34.588Z,99.90
2017-10-17T09:50:02.915Z,99.90
2017-10-17T09:52:31.220Z,99.90
2017-10-17T09:54:59.561Z,99.90
2017-10-17T09:57:27.877Z,99.90
2017-10-17T09:59:56.237Z,99.90
2017-10-17T10:02:24.554Z,99.90
2017-10-17T10:04:52.879Z,99.90
2017-10-17T10:07:21.205Z,99.90
2017-10-17T10:09:49.540Z,99.90
2017-10-17T10:12:17.845Z,99.90
2017-10-17T10:14:52.129Z,99.90
2017-10-17T10:17:20.429Z,99.90
2017-10-17T10:19:48.753Z,99.90
2017-10-17T10:22:17.092Z,99.90
2017-10-17T10:24:45.412Z,99.90
2017-10-17T10:27:14.480Z,99.90
2017-10-17T10:29:42.815Z,99.90
2017-10-17T10:32:11.121Z,99.90
2017-10-17T10:34:39.448Z,99.90
2017-10-17T10:37:08.519Z,99.90
2017-10-17T10:39:36.855Z,99.90
2017-10-17T10:42:05.156Z,99.90
2017-10-17T10:44:33.493Z,99.90
2017-10-17T10:47:01.799Z,99.90
2017-10-17T10:49:30.126Z,99.90
2017-10-17T10:51:58.441Z,99.90
2017-10-17T10:54:26.765Z,99.90
2017-10-17T10:56:55.065Z,99.90
2017-10-17T10:59:24.165Z,99.90
2017-10-17T11:01:53.247Z,99.90
2017-10-17T11:04:21.584Z,99.90
2017-10-17T11:06:49.892Z,99.90
2017-10-17T11:09:18.226Z,99.90
2017-10-17T11:11:46.528Z,99.90
2017-10-17T11:14:14.862Z,99.90
2017-10-17T11:16:43.931Z,99.90
2017-10-17T11:19:12.292Z,99.90
2017-10-17T11:21:40.617Z,99.90
2017-10-17T11:24:09.704Z,99.90
2017-10-17T11:26:38.051Z,99.90
2017-10-17T11:29:06.390Z,99.90
2017-10-17T11:31:34.692Z,99.90
2017-10-17T11:34:03.015Z,99.90
2017-10-17T11:36:31.316Z,99.90
2017-10-17T11:38:59.639Z,99.90
2017-10-17T11:41:39.786Z,99.90
2017-10-17T11:44:12.104Z,99.90
2017-10-17T11:46:41.169Z,99.90
2017-10-17T11:49:09.518Z,99.90
2017-10-17T11:51:37.829Z,99.90
2017-10-17T11:54:06.152Z,99.90
2017-10-17T11:56:34.447Z,99.90
2017-10-17T11:59:02.772Z,99.90
2017-10-17T12:01:31.125Z,99.90
2017-10-17T12:03:59.424Z,99.90
2017-10-17T12:06:27.752Z,99.90
2017-10-17T12:08:56.052Z,99.90
2017-10-17T12:11:24.433Z,99.90
2017-10-17T12:13:52.753Z,99.90
2017-10-17T12:16:21.068Z,99.90
2017-10-17T12:18:49.380Z,99.90
2017-10-17T12:21:17.705Z,99.90
2017-10-17T12:23:46.784Z,99.90
2017-10-17T12:26:15.898Z,99.90
2017-10-17T12:28:44.968Z,99.90
2017-10-17T12:31:13.331Z,99.90
2017-10-17T12:33:41.627Z,99.90
2017-10-17T12:36:09.965Z,99.90
2017-10-17T12:38:38.275Z,99.90
2017-10-17T12:41:06.612Z,99.90
2017-10-17T12:43:34.914Z,99.50
2017-10-17T12:46:03.280Z,99.70
2017-10-17T12:48:31.583Z,99.10
2017-10-17T12:50:59.908Z,99.20
2017-10-17T12:53:28.216Z,98.70
2017-10-17T12:55:56.553Z,97.60
2017-10-17T12:58:25.631Z,98.10
2017-10-17T13:00:53.963Z,98.00
2017-10-17T13:03:22.296Z,97.60
2017-10-17T13:05:50.628Z,96.60
2017-10-17T13:08:18.948Z,95.80
2017-10-17T13:10:47.283Z,95.40
2017-10-17T13:13:15.586Z,95.20
2017-10-17T13:15:43.909Z,95.10
2017-10-17T13:18:12.245Z,94.10
2017-10-17T13:20:40.583Z,94.10
2017-10-17T13:23:08.901Z,94.30
2017-10-17T13:25:37.236Z,94.00
2017-10-17T13:28:05.549Z,93.90
2017-10-17T13:30:33.867Z,93.40
2017-10-17T13:33:02.951Z,93.80
2017-10-17T13:35:31.272Z,93.80
2017-10-17T13:37:59.585Z,94.30
2017-10-17T13:40:27.910Z,93.00
2017-10-17T13:42:56.974Z,93.90
2017-10-17T13:45:25.298Z,93.90
2017-10-17T13:47:53.611Z,92.90
2017-10-17T13:50:21.933Z,93.20
2017-10-17T13:52:51.009Z,92.60
2017-10-17T13:55:20.108Z,93.40
2017-10-17T13:57:48.422Z,93.40
2017-10-17T14:00:16.753Z,93.90
2017-10-17T14:02:45.843Z,92.60
2017-10-17T14:05:14.173Z,92.60
2017-10-17T14:07:42.476Z,93.60
2017-10-17T14:10:10.797Z,93.50
2017-10-17T14:12:39.127Z,92.80
2017-10-17T14:15:07.458Z,93.60
2017-10-17T14:17:35.757Z,93.20
2017-10-17T14:20:04.099Z,94.40
2017-10-17T14:22:32.404Z,95.00
2017-10-17T14:25:01.499Z,95.50
2017-10-17T14:27:30.573Z,95.60
2017-10-17T14:29:59.674Z,95.80
2017-10-17T14:32:27.974Z,95.80
2017-10-17T14:34:57.068Z,96.10
2017-10-17T14:37:26.143Z,95.30
2017-10-17T14:39:54.460Z,95.30
2017-10-17T14:42:22.768Z,96.70
2017-10-17T14:44:51.104Z,97.60
2017-10-17T14:47:19.426Z,97.60
2017-10-17T14:49:47.788Z,96.80
2017-10-17T14:52:16.094Z,98.00
2017-10-17T14:54:44.394Z,97.90
2017-10-17T14:57:13.488Z,96.80
2017-10-17T14:59:41.784Z,96.80
2017-10-17T15:02:10.106Z,97.20
2017-10-17T15:04:38.410Z,97.10
2017-10-17T15:07:06.737Z,97.60
2017-10-17T15:09:35.049Z,97.70
2017-10-17T15:12:03.375Z,98.10
2017-10-17T15:14:32.445Z,97.50
2017-10-17T15:17:00.781Z,97.50
2017-10-17T15:19:29.086Z,99.00
2017-10-17T15:21:57.418Z,99.50
2017-10-17T15:24:25.717Z,98.80
2017-10-17T15:26:54.042Z,98.60
2017-10-17T15:29:22.346Z,99.30
2017-10-17T15:31:50.667Z,99.30
2017-10-17T15:34:18.964Z,99.90
2017-10-17T15:36:47.314Z,99.90
2017-10-17T15:39:15.612Z,99.90
2017-10-17T15:41:43.949Z,99.90
2017-10-17T15:44:12.254Z,99.90
2017-10-17T15:46:40.578Z,99.90
2017-10-17T15:49:08.918Z,99.90
2017-10-17T15:51:37.237Z,99.90
2017-10-17T15:54:06.313Z,99.90
2017-10-17T15:56:34.649Z,99.90
2017-10-17T15:59:02.970Z,99.90
2017-10-17T16:01:31.306Z,99.90
2017-10-17T16:03:59.603Z,99.90
2017-10-17T16:06:27.937Z,99.90
2017-10-17T16:08:56.245Z,99.90
2017-10-17T16:11:24.576Z,99.90
2017-10-17T16:13:53.667Z,99.90
2017-10-17T16:16:21.993Z,99.90
2017-10-17T16:18:50.283Z,99.90
2017-10-17T16:21:18.612Z,99.90
2017-10-17T16:23:47.697Z,99.90
2017-10-17T16:26:16.050Z,99.90
2017-10-17T16:28:44.373Z,99.90
2017-10-17T16:31:16.450Z,99.90
2017-10-17T16:33:44.768Z,99.90
2017-10-17T16:36:13.087Z,99.90
2017-10-17T16:38:42.160Z,99.90
2017-10-17T16:41:10.489Z,99.90
2017-10-17T16:43:38.798Z,99.90
2017-10-17T16:46:07.133Z,99.90
2017-10-17T16:48:36.197Z,99.90
2017-10-17T16:51:04.517Z,99.90
2017-10-17T16:53:32.823Z,99.90
2017-10-17T16:56:01.158Z,99.90
2017-10-17T16:58:29.478Z,99.90
2017-10-17T17:00:57.813Z,99.90
2017-10-17T17:03:26.899Z,99.90
2017-10-17T17:05:55.995Z,99.90
2017-10-17T17:08:25.069Z,99.90
2017-10-17T17:10:53.400Z,99.90
2017-10-17T17:13:21.727Z,99.90
2017-10-17T17:15:50.052Z,99.90
2017-10-17T17:18:18.366Z,99.90
2017-10-17T17:20:46.737Z,99.90
2017-10-17T17:23:15.041Z,99.90
2017-10-17T17:25:43.374Z,99.90
2017-10-17T17:28:11.676Z,99.90
2017-10-17T17:30:40.021Z,99.90
2017-10-17T17:33:08.330Z,99.90
2017-10-17T17:35:36.659Z,99.90
2017-10-17T17:38:05.773Z,99.90
2017-10-17T17:40:34.135Z,99.90
2017-10-17T17:43:02.433Z,99.90
2017-10-17T17:45:30.765Z,99.90
2017-10-17T17:47:59.091Z,99.90
2017-10-17T17:50:27.402Z,99.90
2017-10-17T17:52:55.728Z,99.90
2017-10-17T17:55:24.801Z,99.90
2017-10-17T17:57:53.133Z,99.90
2017-10-17T18:00:21.466Z,99.90
2017-10-17T18:02:49.812Z,99.90
2017-10-17T18:05:21.702Z,99.90
2017-10-17T18:07:50.835Z,99.90
2017-10-17T18:10:19.180Z,99.90
2017-10-17T18:12:47.512Z,99.90
2017-10-17T18:15:15.857Z,99.90
2017-10-17T18:17:44.241Z,99.90
2017-10-17T18:20:13.311Z,99.90
2017-10-17T18:22:41.646Z,99.90
2017-10-17T18:25:09.969Z,99.90
2017-10-17T18:27:38.304Z,99.90
2017-10-17T18:30:06.609Z,99.90
2017-10-17T18:32:34.930Z,99.90
2017-10-17T18:35:03.249Z,99.90
2017-10-17T18:37:31.573Z,99.90
2017-10-17T18:40:00.655Z,99.90
2017-10-17T18:42:28.981Z,99.90
2017-10-17T18:44:57.288Z,99.90
2017-10-17T18:47:25.617Z,99.90
2017-10-17T18:49:54.701Z,99.90
2017-10-17T18:52:23.806Z,99.90
2017-10-17T18:54:52.876Z,99.90
2017-10-17T18:57:21.212Z,99.90
2017-10-17T18:59:49.533Z,99.90
2017-10-17T19:02:17.880Z,99.90
2017-10-17T19:04:46.193Z,99.90
2017-10-17T19:07:14.534Z,99.90
2017-10-17T19:09:42.836Z,99.90
2017-10-17T19:12:11.169Z,99.90
2017-10-17T19:14:39.494Z,99.90
2017-10-17T19:17:07.812Z,99.90
2017-10-17T19:19:36.898Z,99.90
2017-10-17T19:22:05.970Z,99.90
2017-10-17T19:24:34.286Z,99.90
2017-10-17T19:27:03.441Z,99.90
2017-10-17T19:29:31.744Z,99.90
2017-10-17T19:32:00.844Z,99.90
2017-10-17T19:34:29.915Z,99.90
2017-10-17T19:36:58.251Z,99.90
2017-10-17T19:39:26.573Z,99.90
2017-10-17T19:41:54.904Z,99.90
2017-10-17T19:44:23.218Z,99.90
2017-10-17T19:46:51.545Z,99.90
2017-10-17T19:49:20.607Z,99.90
2017-10-17T19:51:48.933Z,99.90
2017-10-17T19:54:17.240Z,99.90
2017-10-17T19:56:45.572Z,99.90
2017-10-17T19:59:14.642Z,99.90
2017-10-17T20:01:42.987Z,99.90
2017-10-17T20:04:11.294Z,99.90
2017-10-17T20:06:39.622Z,99.90
2017-10-17T20:09:07.921Z,99.90
2017-10-17T20:11:36.261Z,99.90
2017-10-17T20:14:05.329Z,99.90
2017-10-17T20:16:33.658Z,99.90
2017-10-17T20:19:01.969Z,99.90
2017-10-17T20:21:30.295Z,99.90
2017-10-17T20:23:59.363Z,99.90
2017-10-17T20:26:27.691Z,99.90
2017-10-17T20:28:56.001Z,99.90
2017-10-17T20:31:24.324Z,99.90
2017-10-17T20:33:52.641Z,99.90
2017-10-17T20:36:20.968Z,99.90
2017-10-17T20:38:50.039Z,99.90
2017-10-17T20:41:18.354Z,99.90
2017-10-17T20:43:46.673Z,99.90
2017-10-17T20:46:14.993Z,99.90
2017-10-17T20:48:43.316Z,99.90
2017-10-17T20:51:11.620Z,99.90
2017-10-17T20:53:39.944Z,99.90
2017-10-17T20:56:09.005Z,99.90
2017-10-17T20:58:37.320Z,99.90
2017-10-17T21:01:06.390Z,99.90
2017-10-17T21:03:34.716Z,99.90
2017-10-17T21:06:03.018Z,99.90
2017-10-17T21:08:31.338Z,99.90
2017-10-17T21:10:59.633Z,99.90
2017-10-17T21:13:27.984Z,99.90
2017-10-17T21:15:56.288Z,99.90
2017-10-17T21:18:25.386Z,99.90
2017-10-17T21:20:54.454Z,99.90
2017-10-17T21:23:22.768Z,99.90
2017-10-17T21:25:51.064Z,99.90
2017-10-17T21:28:19.379Z,99.90
2017-10-17T21:30:47.680Z,99.90
2017-10-17T21:33:15.994Z,99.90
2017-10-17T21:35:44.296Z,99.90
2017-10-17T21:38:12.615Z,99.90
2017-10-17T21:40:40.917Z,99.90
2017-10-17T21:43:09.241Z,99.90
2017-10-17T21:45:37.537Z,99.90
2017-10-17T21:48:06.766Z,99.90
2017-10-17T21:50:35.065Z,99.90
2017-10-17T21:53:03.391Z,99.90
2017-10-17T21:55:31.701Z,99.90
2017-10-17T21:58:00.782Z,99.90
2017-10-17T22:00:41.722Z,99.90
2017-10-17T22:03:10.052Z,99.90
2017-10-17T22:05:38.349Z,99.90
2017-10-17T22:08:06.681Z,99.90
2017-10-17T22:10:35.756Z,99.90
2017-10-17T22:13:04.088Z,99.90
2017-10-17T22:15:32.408Z,99.90
2017-10-17T22:18:00.749Z,99.90
2017-10-17T22:20:29.052Z,99.90
2017-10-17T22:22:57.376Z,99.90
2017-10-17T22:25:26.454Z,99.90
2017-10-17T22:27:54.768Z,99.90
2017-10-17T22:30:23.080Z,99.90
2017-10-17T22:32:51.413Z,99.90
2017-10-17T22:35:19.714Z,99.90
2017-10-17T22:37:48.030Z,99.90
2017-10-17T22:40:16.333Z,99.90
2017-10-17T22:42:44.657Z,99.90
2017-10-17T22:45:12.960Z,99.90
2017-10-17T22:47:41.288Z,99.90
2017-10-17T22:50:10.355Z,99.90
2017-10-17T22:52:38.683Z,99.90
2017-10-17T22:55:06.989Z,99.90
2017-10-17T22:57:36.081Z,99.90
2017-10-17T23:00:04.372Z,99.90
2017-10-17T23:02:32.469Z,99.90
2017-10-17T23:05:01.536Z,99.90
2017-10-17T23:07:29.862Z,99.90
2017-10-17T23:09:58.928Z,99.90
2017-10-17T23:12:27.267Z,99.90
2017-10-17T23:14:55.565Z,99.90
2017-10-17T23:17:35.625Z,99.90
2017-10-17T23:20:15.809Z,99.90
2017-10-17T23:22:44.897Z,99.90
2017-10-17T23:25:13.204Z,99.90
2017-10-17T23:27:41.547Z,99.90
2017-10-17T23:30:09.846Z,99.90
2017-10-17T23:32:38.929Z,99.90
2017-10-17T23:35:07.231Z,99.90
2017-10-17T23:37:36.319Z,99.90
2017-10-17T23:40:05.396Z,99.90
2017-10-17T23:42:33.721Z,99.90
2017-10-17T23:45:02.022Z,99.90
2017-10-17T23:47:30.351Z,99.90
2017-10-17T23:49:59.419Z,99.90
2017-10-17T23:52:27.753Z,99.90
2017-10-17T23:54:56.056Z,99.90
2017-10-17T23:57:24.378Z,99.90
2017-10-17T23:59:53.451Z,99.90
